Aérodrome :
LOGIN :

S'inscrire | Disclaimer

   EN    FR    IT 

 










Légende :    VFR   VFR Marginal   IFR   IFR Intensif   IFR Très Intensif
Visi : 
Plafond : 
>= 8 km
>= 3000ft
5 à 8 km
1000 à 3000 ft
1500m à 5 km
500 à 1000 ft
800 à 1500m
200 à 500 ft
< 800m
< 200 ft
Symboles :   Orages  Brouillard  Fortes neiges  Fortes précipitations  Vent > 20 kt
SIGMETs :   Divers  Orages  Givrage  Turbulence  Onde Orograph.  Cendres Volcan.







- Altitude de l'aérodrome : 187 ft


LPMR - Monte Real Air Base

DERNIER METAR :
  • 162000Z 16003KT 3000 BR FEW020 BKN030 10/10 Q1019

METARs EXPIRÉS :
  • 161900Z 16002KT 3000 BR BKN020 BKN040 10/10 Q1019
  • 161800Z 05003KT 030V090 4000 BR SCT004 BKN018 BKN030 10/10 Q1019

TAF TAF LPMR
Valide du 16 à 18h jusqu'au 17 à 18h UTC


161705Z 1618/1718 VRB02KT 7000 SCT014 BKN030
TEMPO 1618/1622 16005KT 1200 RADZ BR SCT005 BKN009
BECMG 1622/1624 36005KT 9999 FEW020
PROB30
TEMPO 1702/1707 3000 -RADZ BR SCT008 BKN012
BECMG 1703/1705 01010KT
TEMPO 1710/1718 36012G22KT
Pas de NOTAMs connus pour ce terrain.



MET'MAP, la Météo Aéronautique d'un coup d'oeil ! - Copyright ORBIFLY Décembre 2007 - Disclaimer

ORBIFLY MET'MAP TEAM :

Programmation & Développement : Alexandra Zaïnal
Conception & Développement : Baudouin d'Aumeries
Co-Programmation & Développement : Marc-Olivier Méhu
Soutien technique & logistique : Manuel Goepfert

Contact : metmap@orbifly.com




SOURCES & CREDITS :

   NOAA